| time (UTC) | temp F | wind direction | speed MPH | gust MPH | rain 1hr in | rain 24hr in | rain mn in | humidity % | barometer mb |
| 20260509100026 | 71 | 9 | 0.0 | 0.0 | 0.00 | 0.02 | 0.00 | 90 | 1007.0 |
| 20260509094525 | 71 | 49 | 0.0 | 0.0 | 0.00 | 0.02 | 0.00 | 89 | 1008.0 |
| 20260509093024 | 71 | 17 | 0.0 | 0.0 | 0.00 | 0.02 | 0.00 | 89 | 1008.6 |
| 20260509091520 | 71 | 31 | 0.0 | 0.0 | 0.00 | 0.02 | 0.00 | 89 | 1009.0 |
| 20260509090020 | 71 | 31 | 0.0 | 0.0 | 0.00 | 0.02 | 0.00 | 89 | 1009.2 |
| 20260509084607 | 71 | 31 | 0.0 | 0.0 | 0.00 | 0.02 | 0.00 | 89 | 1009.3 |
| 20260509083011 | 71 | 31 | 0.0 | 0.0 | 0.00 | 0.02 | 0.00 | 88 | 1009.7 |
| 20260509081605 | 71 | 31 | 0.0 | 0.0 | 0.00 | 0.02 | 0.00 | 88 | 1009.9 |
| 20260509080009 | 71 | 31 | 0.0 | 0.0 | 0.00 | 0.02 | 0.00 | 88 | 1010.2 |
| 20260509074503 | 71 | 30 | 0.0 | 0.0 | 0.00 | 0.02 | 0.00 | 87 | 1010.1 |
| 20260509073002 | 71 | 24 | 0.0 | 0.0 | 0.00 | 0.02 | 0.00 | 87 | 1010.2 |
| 20260509071602 | 71 | 21 | 0.0 | 0.0 | 0.00 | 0.02 | 0.00 | 86 | 1010.3 |
| 20260509070100 | 71 | 21 | 0.0 | 0.0 | 0.00 | 0.02 | 0.00 | 85 | 1010.2 |
| 20260509064555 | 72 | 21 | 0.0 | 0.0 | 0.00 | 0.02 | 0.00 | 85 | 1010.3 |
| 20260509063107 | 72 | 19 | 0.0 | 0.0 | 0.00 | 0.02 | 0.00 | 85 | 1010.1 |
| 20260509061556 | 72 | 19 | 0.0 | 0.0 | 0.00 | 0.02 | 0.00 | 85 | 1010.1 |
| 20260509060054 | 72 | 19 | 0.0 | 0.0 | 0.00 | 0.02 | 0.00 | 85 | 1009.8 |
| 20260509054551 | 73 | 15 | 0.0 | 0.0 | 0.00 | 0.02 | 0.00 | 85 | 1009.5 |
| 20260509053047 | 73 | 30 | 0.0 | 0.0 | 0.00 | 0.02 | 0.00 | 84 | 1010.5 |
| 20260509051545 | 73 | 22 | 0.0 | 0.0 | 0.00 | 0.02 | 0.00 | 84 | 1010.6 |
| 20260509050051 | 73 | 22 | 0.0 | 0.0 | 0.00 | 0.02 | 0.00 | 83 | 1010.6 |
| 20260509044536 | 73 | 22 | 0.0 | 0.0 | 0.00 | 0.02 | 0.02 | 83 | 1010.5 |
| 20260509043043 | 73 | 22 | 0.0 | 0.0 | 0.00 | 0.02 | 0.02 | 84 | 1010.3 |
| 20260509041537 | 73 | 22 | 0.0 | 0.0 | 0.00 | 0.02 | 0.02 | 84 | 1010.2 |
| 20260509040038 | 73 | 22 | 0.0 | 0.0 | 0.00 | 0.02 | 0.02 | 84 | 1010.0 |
| 20260509034533 | 73 | 22 | 0.0 | 0.0 | 0.00 | 0.02 | 0.02 | 83 | 1009.7 |
| 20260509033039 | 73 | 22 | 0.0 | 0.0 | 0.00 | 0.02 | 0.02 | 83 | 1009.7 |
| 20260509031533 | 73 | 22 | 0.0 | 0.0 | 0.00 | 0.02 | 0.02 | 83 | 1009.7 |
| 20260509030031 | 73 | 22 | 0.0 | 0.0 | 0.00 | 0.02 | 0.02 | 82 | 1009.7 |
| 20260509024533 | 73 | 22 | 0.0 | 0.0 | 0.00 | 0.02 | 0.02 | 82 | 1009.5 |
| 20260509023030 | 73 | 22 | 0.0 | 0.0 | 0.00 | 0.02 | 0.02 | 81 | 1009.2 |
| 20260509021532 | 74 | 22 | 0.0 | 0.0 | 0.00 | 0.02 | 0.02 | 81 | 1008.9 |
| 20260509020030 | 74 | 22 | 0.0 | 0.0 | 0.00 | 0.02 | 0.02 | 81 | 1008.8 |
| 20260509014528 | 74 | 22 | 0.0 | 0.0 | 0.00 | 0.02 | 0.02 | 81 | 1008.7 |
| 20260509013029 | 73 | 22 | 0.0 | 0.0 | 0.00 | 0.02 | 0.02 | 81 | 1008.4 |
| 20260509011528 | 73 | 22 | 0.0 | 0.0 | 0.00 | 0.02 | 0.02 | 81 | 1008.3 |
| 20260509010033 | 74 | 22 | 0.0 | 0.0 | 0.00 | 0.02 | 0.02 | 79 | 1008.0 |
| 20260509004527 | 75 | 22 | 0.0 | 0.0 | 0.00 | 0.02 | 0.02 | 78 | 1007.9 |
| 20260509003028 | 75 | 22 | 0.0 | 0.0 | 0.00 | 0.02 | 0.02 | 76 | 1008.1 |
| 20260509001526 | 76 | 22 | 0.0 | 0.0 | 0.00 | 0.02 | 0.02 | 76 | 1008.2 |
| 20260509000038 | 76 | 28 | 0.0 | 0.0 | 0.00 | 0.02 | 0.02 | 75 | 1008.2 |
| 20260508234526 | 76 | 30 | 0.0 | 0.0 | 0.00 | 0.02 | 0.02 | 74 | 1008.3 |
| 20260508233024 | 76 | 61 | 0.0 | 0.0 | 0.00 | 0.02 | 0.02 | 74 | 1008.2 |
| 20260508231526 | 77 | 248 | 0.0 | 0.0 | 0.00 | 0.02 | 0.02 | 72 | 1008.2 |
| 20260508230024 | 78 | 19 | 0.0 | 0.0 | 0.00 | 0.02 | 0.02 | 71 | 1008.3 |
| 20260508224545 | 77 | 313 | 0.0 | 0.0 | 0.00 | 0.02 | 0.02 | 72 | 1008.1 |
| 20260508223022 | 76 | 74 | 0.0 | 0.0 | 0.00 | 0.02 | 0.02 | 73 | 1007.9 |
| 20260508221520 | 76 | 21 | 0.0 | 0.0 | 0.00 | 0.02 | 0.02 | 74 | 1008.3 |
| 20260508220028 | 75 | 30 | 0.0 | 0.0 | 0.01 | 0.02 | 0.02 | 77 | 1008.5 |
| 20260508214518 | 72 | 174 | 0.0 | 0.0 | 0.02 | 0.02 | 0.02 | 81 | 1009.2 |
| 20260508213022 | 71 | 182 | 0.0 | 0.0 | 0.02 | 0.02 | 0.02 | 84 | 1010.2 |
| 20260508211519 | 70 | 193 | 0.0 | 0.0 | 0.02 | 0.02 | 0.02 | 84 | 1009.8 |
| 20260508210016 | 71 | 192 | 0.0 | 0.0 | 0.01 | 0.01 | 0.01 | 82 | 1009.9 |
| 20260508204509 | 74 | 192 | 0.0 | 0.0 | 0.00 | 0.00 | 0.00 | 74 | 1010.4 |
| 20260508203011 | 75 | 192 | 0.0 | 0.0 | 0.00 | 0.00 | 0.00 | 71 | 1010.9 |
| 20260508201506 | 75 | 18 | 0.0 | 0.0 | 0.00 | 0.00 | 0.00 | 71 | 1010.0 |
| 20260508200015 | 75 | 189 | 0.0 | 0.0 | 0.00 | 0.00 | 0.00 | 72 | 1010.1 |
| 20260508194510 | 76 | 186 | 0.0 | 0.0 | 0.00 | 0.00 | 0.00 | 70 | 1010.4 |
| 20260508193002 | 77 | 261 | 0.0 | 0.0 | 0.00 | 0.00 | 0.00 | 68 | 1010.6 |
| 20260508191558 | 76 | 273 | 0.0 | 0.0 | 0.00 | 0.00 | 0.00 | 70 | 1010.8 |
| 20260508190055 | 76 | 273 | 0.0 | 0.0 | 0.00 | 0.00 | 0.00 | 69 | 1011.1 |
| 20260508184555 | 77 | 90 | 0.0 | 0.0 | 0.00 | 0.00 | 0.00 | 66 | 1011.4 |
| 20260508183116 | 77 | 35 | 0.0 | 0.0 | 0.00 | 0.00 | 0.00 | 66 | 1011.3 |
| 20260508181608 | 75 | 22 | 0.0 | 0.0 | 0.00 | 0.00 | 0.00 | 69 | 1011.8 |
| 20260508180049 | 76 | 22 | 0.0 | 0.0 | 0.00 | 0.00 | 0.00 | 69 | 1011.9 |
| 20260508174545 | 75 | 42 | 0.0 | 0.0 | 0.00 | 0.00 | 0.00 | 70 | 1012.0 |
| 20260508173044 | 77 | 26 | 0.0 | 0.0 | 0.00 | 0.00 | 0.00 | 64 | 1012.4 |
| 20260508171548 | 78 | 27 | 0.0 | 0.0 | 0.00 | 0.00 | 0.00 | 65 | 1012.4 |
| 20260508170037 | 77 | 17 | 0.0 | 0.0 | 0.00 | 0.00 | 0.00 | 68 | 1012.5 |
| 20260508164533 | 74 | 30 | 0.0 | 0.0 | 0.00 | 0.00 | 0.00 | 71 | 1013.1 |
| 20260508163030 | 73 | 38 | 0.0 | 0.0 | 0.00 | 0.00 | 0.00 | 72 | 1013.3 |
| 20260508161533 | 71 | 49 | 0.0 | 0.0 | 0.00 | 0.00 | 0.00 | 74 | 1013.7 |
| 20260508160027 | 71 | 23 | 0.0 | 0.0 | 0.00 | 0.00 | 0.00 | 75 | 1013.9 |
| 20260508154520 | 70 | 36 | 0.0 | 0.0 | 0.00 | 0.00 | 0.00 | 76 | 1014.2 |
| 20260508153018 | 69 | 36 | 0.0 | 0.0 | 0.00 | 0.00 | 0.00 | 76 | 1014.2 |
| 20260508151502 | 69 | 36 | 0.0 | 0.0 | 0.00 | 0.00 | 0.00 | 77 | 1014.5 |
| 20260508150124 | 67 | 37 | 0.0 | 0.0 | 0.00 | 0.00 | 0.00 | 82 | 1014.4 |
| 20260508144603 | 65 | 11 | 0.0 | 0.0 | 0.00 | 0.00 | 0.00 | 86 | 1014.5 |
| 20260508143054 | 63 | 39 | 0.0 | 0.0 | 0.00 | 0.00 | 0.00 | 88 | 1014.3 |
| 20260508141558 | 62 | 48 | 0.0 | 0.0 | 0.00 | 0.00 | 0.00 | 90 | 1014.3 |
| 20260508140054 | 61 | 47 | 0.0 | 0.0 | 0.00 | 0.00 | 0.00 | 90 | 1014.3 |
| 20260508134540 | 60 | 47 | 0.0 | 0.0 | 0.00 | 0.00 | 0.00 | 91 | 1014.3 |
| 20260508133042 | 59 | 42 | 0.0 | 0.0 | 0.00 | 0.00 | 0.00 | 91 | 1014.7 |
| 20260508131535 | 59 | 53 | 0.0 | 0.0 | 0.00 | 0.00 | 0.00 | 90 | 1014.6 |
| 20260508130034 | 58 | 106 | 0.0 | 0.0 | 0.00 | 0.00 | 0.00 | 90 | 1014.7 |
| 20260508124532 | 57 | 106 | 0.0 | 0.0 | 0.00 | 0.00 | 0.00 | 89 | 1014.0 |
| 20260508123033 | 56 | 106 | 0.0 | 0.0 | 0.00 | 0.00 | 0.00 | 89 | 1014.0 |
| 20260508121529 | 56 | 107 | 0.0 | 0.0 | 0.00 | 0.00 | 0.00 | 88 | 1013.9 |
| 20260508120027 | 56 | 107 | 0.0 | 0.0 | 0.00 | 0.00 | 0.00 | 88 | 1014.1 |
| 20260508114532 | 56 | 106 | 0.0 | 0.0 | 0.00 | 0.00 | 0.00 | 88 | 1014.3 |
| 20260508113039 | 57 | 106 | 0.0 | 0.0 | 0.00 | 0.00 | 0.00 | 88 | 1014.4 |
| 20260508111524 | 57 | 106 | 0.0 | 0.0 | 0.00 | 0.00 | 0.00 | 88 | 1014.2 |
| 20260508110021 | 57 | 106 | 0.0 | 0.0 | 0.00 | 0.00 | 0.00 | 88 | 1013.9 |
| 20260508104520 | 57 | 106 | 0.0 | 0.0 | 0.00 | 0.00 | 0.00 | 88 | 1014.2 |
| 20260508103018 | 58 | 121 | 0.0 | 0.0 | 0.00 | 0.00 | 0.00 | 88 | 1014.2 |
| 20260508101528 | 58 | 121 | 0.0 | 0.0 | 0.00 | 0.00 | 0.00 | 88 | 1014.3 |